Time;durP1;ratioP1;P1;durP2;ratioP2;P2;SDS_P1;SDS_P2;PMS_P1;PMS_P2;Temp;Humidity;BMP_temperature;BMP_pressure;BME280_temperature;BME280_humidity;BME280_pressure;Samples;Min_cycle;Max_cycle;Signal;HPM_P1;HPM_P2
2022/05/08 00:00:30;;;;;;;12.85;6.07;;;;;;;14.61;34.16;99803.56;4991429;28;20038;-43
2022/05/08 00:02:57;;;;;;;10.15;6.35;;;;;;;14.60;34.16;99796.63;4989495;28;20414;-46
2022/05/08 00:05:23;;;;;;;14.82;6.47;;;;;;;14.48;34.24;99770.25;4989634;28;20128;-43
2022/05/08 00:07:49;;;;;;;12.32;6.32;;;;;;;14.58;34.34;99792.41;4991700;28;20046;-45
2022/05/08 00:10:15;;;;;;;11.75;6.22;;;;;;;14.43;34.41;99773.09;4991220;28;20179;-44
2022/05/08 00:12:41;;;;;;;15.45;6.35;;;;;;;14.53;34.33;99790.03;4991426;28;20045;-44
2022/05/08 00:15:09;;;;;;;12.50;5.18;;;;;;;14.47;34.60;99779.00;4974718;28;20120;-45
2022/05/08 00:17:35;;;;;;;12.40;6.53;;;;;;;14.53;34.42;99789.19;4958093;28;20414;-44
2022/05/08 00:20:02;;;;;;;12.77;6.45;;;;;;;14.55;34.41;99787.34;4991252;28;20045;-45
2022/05/08 00:22:28;;;;;;;10.85;6.35;;;;;;;14.58;34.48;99790.66;4984191;28;20129;-44
2022/05/08 00:24:55;;;;;;;10.68;6.05;;;;;;;14.56;34.43;99787.25;4982557;28;20130;-45
2022/05/08 00:27:22;;;;;;;14.73;7.00;;;;;;;14.53;34.79;99782.19;4990537;28;20054;-44
2022/05/08 00:29:48;;;;;;;11.30;6.60;;;;;;;14.51;34.66;99784.00;4979183;28;20052;-43
2022/05/08 00:32:13;;;;;;;14.70;6.78;;;;;;;14.52;34.67;99777.03;4978807;28;20042;-43
2022/05/08 00:34:41;;;;;;;12.98;6.68;;;;;;;14.52;34.57;99777.88;4958664;28;20034;-43
2022/05/08 00:37:07;;;;;;;10.70;6.18;;;;;;;14.50;34.59;99771.84;4989906;28;20469;-45
2022/05/08 00:39:35;;;;;;;11.67;6.30;;;;;;;14.50;34.78;99773.66;4991153;28;20042;-42
2022/05/08 00:42:01;;;;;;;14.27;6.43;;;;;;;14.48;34.83;99778.09;4991461;28;20581;-44
2022/05/08 00:44:26;;;;;;;12.95;6.03;;;;;;;14.48;34.78;99767.63;4990365;28;20088;-44
2022/05/08 00:46:52;;;;;;;11.18;5.93;;;;;;;14.49;34.87;99764.09;4989876;28;20109;-46
2022/05/08 00:49:18;;;;;;;13.75;6.55;;;;;;;14.53;34.92;99768.25;4991000;28;20145;-43
2022/05/08 00:51:47;;;;;;;14.93;5.30;;;;;;;14.46;34.96;99741.53;4990874;28;20054;-44
2022/05/08 00:54:13;;;;;;;15.70;6.68;;;;;;;14.51;35.07;99754.38;4989694;28;20079;-44
2022/05/08 00:56:39;;;;;;;12.60;6.20;;;;;;;14.47;35.22;99745.84;4990191;28;20069;-46
2022/05/08 00:59:05;;;;;;;10.90;6.15;;;;;;;14.46;35.30;99754.63;4985521;28;20466;-45
2022/05/08 01:01:31;;;;;;;12.18;6.03;;;;;;;14.43;35.29;99748.69;4973564;28;20514;-44
2022/05/08 01:03:56;;;;;;;10.45;5.82;;;;;;;14.39;35.47;99743.59;4988618;28;20092;-44
2022/05/08 01:06:22;;;;;;;10.93;5.20;;;;;;;14.37;35.54;99753.31;4989890;28;20042;-44
2022/05/08 01:08:49;;;;;;;15.85;5.97;;;;;;;14.38;35.48;99751.53;4989181;28;20129;-43
2022/05/08 01:11:15;;;;;;;9.73;5.57;;;;;;;14.38;35.62;99746.31;4990169;28;20457;-43
2022/05/08 01:13:42;;;;;;;11.77;5.70;;;;;;;14.38;35.55;99747.16;4989826;28;20042;-43
2022/05/08 01:16:09;;;;;;;14.55;6.25;;;;;;;14.37;35.64;99737.63;4989634;28;20062;-43
2022/05/08 01:18:35;;;;;;;25.13;6.80;;;;;;;14.38;35.79;99747.16;4992386;28;20042;-42
2022/05/08 01:21:01;;;;;;;13.38;5.95;;;;;;;14.29;35.73;99734.47;4993131;28;20046;-43
2022/05/08 01:23:26;;;;;;;10.82;5.63;;;;;;;14.38;35.80;99733.22;4994679;28;20134;-44
2022/05/08 01:25:56;;;;;;;12.10;5.72;;;;;;;14.38;35.84;99735.84;4993951;28;20034;-44
2022/05/08 01:28:23;;;;;;;12.60;5.55;;;;;;;14.23;35.70;99710.41;4993839;28;20088;-43
2022/05/08 01:30:50;;;;;;;14.57;6.57;;;;;;;14.37;35.82;99729.78;4993796;28;20046;-45
2022/05/08 01:33:16;;;;;;;10.55;5.60;;;;;;;14.36;35.89;99729.81;4992821;28;20141;-43
2022/05/08 01:35:43;;;;;;;11.75;6.07;;;;;;;14.35;35.86;99722.88;4977549;28;20042;-43
2022/05/08 01:38:10;;;;;;;15.48;5.95;;;;;;;14.37;35.82;99721.06;4994928;28;20046;-43
2022/05/08 01:40:36;;;;;;;13.63;5.13;;;;;;;14.29;35.81;99718.78;4992718;28;20469;-44
2022/05/08 01:43:02;;;;;;;10.70;5.93;;;;;;;14.36;35.79;99735.91;4994673;28;20565;-45
2022/05/08 01:45:28;;;;;;;9.35;5.03;;;;;;;14.31;36.01;99732.66;4977038;28;20502;-45
2022/05/08 01:50:39;;;;;;;13.65;6.50;;;;;;;14.28;36.24;99739.81;4993423;28;20038;-44
2022/05/08 01:53:04;;;;;;;12.45;5.90;;;;;;;14.27;36.04;99730.25;4994757;28;20042;-42
2022/05/08 01:55:30;;;;;;;10.38;5.88;;;;;;;14.29;35.97;99725.78;4992411;28;20046;-44
2022/05/08 01:57:56;;;;;;;12.10;5.82;;;;;;;14.27;36.13;99714.56;4992755;28;20042;-44
2022/05/08 02:00:23;;;;;;;13.00;5.90;;;;;;;14.28;35.67;99718.88;4994026;28;20048;-43
2022/05/08 02:02:50;;;;;;;13.70;6.30;;;;;;;14.29;36.19;99725.78;4993160;28;20058;-43
2022/05/08 02:05:16;;;;;;;12.55;6.60;;;;;;;14.18;36.14;99710.66;4991990;28;20038;-44
2022/05/08 02:07:47;;;;;;;15.00;6.00;;;;;;;14.27;36.06;99723.25;4992664;28;20046;-43
2022/05/08 02:10:13;;;;;;;11.38;6.10;;;;;;;14.26;36.08;99720.72;4975469;28;20125;-42
2022/05/08 02:12:40;;;;;;;13.98;6.05;;;;;;;14.28;35.96;99724.13;4993304;28;20457;-44
2022/05/08 02:15:10;;;;;;;15.27;5.95;;;;;;;14.32;36.03;99728.25;4993916;28;20034;-44
2022/05/08 02:17:37;;;;;;;9.50;5.40;;;;;;;14.27;36.10;99725.03;4994050;28;20129;-43
2022/05/08 02:20:04;;;;;;;11.95;5.68;;;;;;;14.30;36.05;99722.25;4975935;28;20060;-43
2022/05/08 02:22:29;;;;;;;12.23;5.78;;;;;;;14.31;36.08;99716.94;4993277;28;20157;-43
2022/05/08 02:24:55;;;;;;;13.68;6.05;;;;;;;14.30;36.10;99724.88;4987281;28;20159;-43
2022/05/08 02:27:21;;;;;;;14.70;6.95;;;;;;;14.22;35.72;99701.72;4983483;28;20045;-44
2022/05/08 02:29:50;;;;;;;14.38;6.85;;;;;;;14.31;36.02;99706.50;4991846;28;20121;-43
2022/05/08 02:32:17;;;;;;;15.57;6.78;;;;;;;14.19;36.13;99691.41;4992392;28;20088;-42
2022/05/08 02:34:43;;;;;;;16.88;7.47;;;;;;;14.31;36.14;99723.94;4993904;28;20080;-43
2022/05/08 02:37:08;;;;;;;16.10;6.93;;;;;;;14.23;36.23;99708.66;4993679;28;20077;-43
2022/05/08 02:39:34;;;;;;;12.65;6.47;;;;;;;14.35;36.10;99722.88;4975338;28;20066;-45
2022/05/08 02:42:00;;;;;;;14.20;7.00;;;;;;;14.32;36.12;99717.81;4988759;28;20046;-44
2022/05/08 02:44:26;;;;;;;16.92;7.05;;;;;;;14.31;36.41;99718.72;4993459;28;20139;-44
2022/05/08 02:46:51;;;;;;;16.00;7.70;;;;;;;14.28;36.27;99722.34;4991272;28;20046;-43
2022/05/08 02:49:17;;;;;;;11.10;6.53;;;;;;;14.30;36.26;99722.25;4992928;28;20051;-45
2022/05/08 02:51:43;;;;;;;20.35;8.27;;;;;;;14.31;36.22;99723.94;4975140;28;20049;-44
2022/05/08 02:54:09;;;;;;;19.27;7.35;;;;;;;14.29;36.29;99731.88;4993316;28;20088;-44
2022/05/08 02:59:19;;;;;;;13.88;7.07;;;;;;;14.33;36.10;99715.13;4992693;28;20128;-44
2022/05/08 03:01:44;;;;;;;14.70;6.72;;;;;;;14.35;36.29;99725.50;4991021;28;20133;-44
2022/05/08 03:04:11;;;;;;;17.38;7.10;;;;;;;14.35;36.23;99717.63;4992173;28;20506;-42
2022/05/08 03:06:38;;;;;;;13.90;6.93;;;;;;;14.40;36.19;99719.13;4992228;28;20053;-44
2022/05/08 03:09:04;;;;;;;18.80;7.07;;;;;;;14.32;36.44;99712.56;4992851;28;20046;-43
2022/05/08 03:11:32;;;;;;;14.70;6.82;;;;;;;14.37;36.60;99719.31;4978475;28;20046;-42
2022/05/08 03:13:58;;;;;;;13.73;7.20;;;;;;;14.20;36.59;99707.94;4973643;28;20469;-42
2022/05/08 03:16:23;;;;;;;14.90;7.30;;;;;;;14.27;36.75;99725.88;4987721;28;20046;-42
2022/05/08 03:18:50;;;;;;;16.17;8.32;;;;;;;14.24;36.95;99727.78;4981064;28;20475;-44
2022/05/08 03:21:16;;;;;;;17.33;7.22;;;;;;;14.23;36.78;99718.25;4972291;28;20113;-43
2022/05/08 03:23:43;;;;;;;13.77;6.85;;;;;;;14.26;36.86;99725.94;4976902;28;20054;-44
2022/05/08 03:26:09;;;;;;;17.38;6.43;;;;;;;14.27;36.77;99717.19;4991749;28;20430;-42
2022/05/08 03:28:39;;;;;;;11.85;6.07;;;;;;;14.26;36.85;99725.94;4975286;28;20045;-43
2022/05/08 03:31:06;;;;;;;17.05;6.75;;;;;;;14.27;36.84;99719.81;4990446;28;20042;-43
2022/05/08 03:33:33;;;;;;;11.45;6.45;;;;;;;14.42;36.50;99713.84;4991369;28;20421;-43
2022/05/08 03:35:59;;;;;;;13.35;6.15;;;;;;;14.58;36.67;99727.84;4991021;28;20077;-44
2022/05/08 03:38:27;;;;;;;15.63;6.78;;;;;;;14.58;36.43;99742.72;4992290;28;20461;-43
2022/05/08 03:40:54;;;;;;;7.63;5.03;;;;;;;14.65;36.32;99708.31;4990837;28;20042;-42
2022/05/08 03:43:21;;;;;;;15.60;6.63;;;;;;;14.75;36.51;99721.78;4992458;28;20076;-43
2022/05/08 03:45:50;;;;;;;11.40;6.07;;;;;;;14.76;36.32;99715.59;4970630;28;20043;-45
2022/05/08 03:48:17;;;;;;;11.52;5.32;;;;;;;14.76;36.44;99716.44;4990293;28;20133;-44
2022/05/08 03:50:43;;;;;;;13.00;6.07;;;;;;;14.73;36.75;99719.22;4992644;28;20069;-43
2022/05/08 03:53:09;;;;;;;10.60;5.60;;;;;;;14.70;36.74;99718.56;4991963;28;20575;-44
2022/05/08 03:55:35;;;;;;;16.45;6.40;;;;;;;14.64;36.73;99717.09;4991603;28;20138;-44
2022/05/08 03:58:00;;;;;;;15.50;6.35;;;;;;;14.58;37.21;99714.78;4991577;28;20042;-46
2022/05/08 04:00:26;;;;;;;10.02;5.95;;;;;;;14.55;37.21;99717.53;4991871;28;20132;-42
2022/05/08 04:02:53;;;;;;;11.60;5.55;;;;;;;14.57;37.12;99709.63;4990351;28;20061;-43
2022/05/08 04:05:19;;;;;;;10.00;5.70;;;;;;;14.59;37.03;99707.78;4990974;28;20054;-43
2022/05/08 04:07:45;;;;;;;16.63;6.25;;;;;;;14.74;37.01;99723.53;4991626;28;20042;-43
2022/05/08 04:10:15;;;;;;;11.45;5.25;;;;;;;14.81;37.16;99721.47;4991415;28;20108;-45
2022/05/08 04:12:42;;;;;;;10.85;6.25;;;;;;;14.86;36.85;99710.75;4971265;28;20512;-44
2022/05/08 04:17:53;;;;;;;12.48;6.00;;;;;;;14.97;36.91;99716.31;4991542;28;20046;-43
2022/05/08 04:20:20;;;;;;;18.48;6.20;;;;;;;14.70;36.84;99687.16;4991195;28;20042;-44
2022/05/08 04:25:30;;;;;;;11.45;5.90;;;;;;;14.75;37.16;99704.31;4990963;28;20062;-45
2022/05/08 04:27:56;;;;;;;13.60;6.00;;;;;;;14.67;37.55;99700.38;4989682;28;20533;-43
2022/05/08 04:30:21;;;;;;;13.88;6.55;;;;;;;14.58;37.77;99700.84;4990377;28;20066;-42
2022/05/08 04:32:47;;;;;;;13.52;5.55;;;;;;;14.52;38.01;99698.53;4991406;28;20553;-43
2022/05/08 04:35:13;;;;;;;11.55;6.15;;;;;;;14.49;38.14;99693.47;4990327;28;20039;-43
2022/05/08 04:37:40;;;;;;;10.93;5.80;;;;;;;14.54;38.00;99697.53;4989964;28;20045;-43
2022/05/08 04:40:06;;;;;;;11.80;6.20;;;;;;;14.62;37.90;99698.00;4974177;28;20041;-43
2022/05/08 04:42:33;;;;;;;16.10;6.55;;;;;;;14.72;37.92;99706.22;4975805;28;20038;-45
2022/05/08 04:44:59;;;;;;;10.00;6.00;;;;;;;14.77;37.58;99689.34;4991271;28;20038;-45
2022/05/08 04:47:25;;;;;;;11.23;6.03;;;;;;;14.93;37.48;99693.78;4990647;28;20042;-45
2022/05/08 04:49:51;;;;;;;12.98;6.07;;;;;;;15.06;37.33;99703.56;4990463;28;20105;-43
2022/05/08 04:52:17;;;;;;;12.63;6.32;;;;;;;15.11;37.37;99692.84;4992010;28;20541;-43
2022/05/08 04:54:44;;;;;;;13.43;6.28;;;;;;;15.20;36.98;99697.59;4995446;28;20533;-43
2022/05/08 04:57:09;;;;;;;13.02;5.47;;;;;;;15.35;36.73;99691.53;4994478;28;20086;-45
2022/05/08 04:59:35;;;;;;;13.25;6.22;;;;;;;15.54;36.40;99689.66;4994427;28;20050;-43
2022/05/08 05:02:02;;;;;;;9.18;4.32;;;;;;;15.71;36.38;99700.97;4994083;28;20046;-43
2022/05/08 05:04:28;;;;;;;8.20;5.28;;;;;;;15.51;36.73;99687.19;4992951;28;20115;-45
2022/05/08 05:06:54;;;;;;;9.70;4.88;;;;;;;15.55;36.30;99690.47;4994737;28;20176;-45
2022/05/08 05:09:20;;;;;;;11.18;5.07;;;;;;;15.54;36.51;99689.66;4993621;28;20129;-44
2022/05/08 05:11:46;;;;;;;10.73;5.00;;;;;;;15.56;36.39;99681.69;4967232;28;20049;-44
2022/05/08 05:14:12;;;;;;;12.15;5.82;;;;;;;15.64;36.59;99677.75;4988541;28;20041;-45
2022/05/08 05:16:38;;;;;;;12.52;5.22;;;;;;;15.73;36.18;99667.66;4995186;28;20125;-43
2022/05/08 05:19:04;;;;;;;10.30;5.95;;;;;;;15.95;35.92;99671.63;4994214;28;20051;-44
2022/05/08 05:21:30;;;;;;;12.65;5.95;;;;;;;16.06;35.51;99666.63;4993648;28;20042;-44
2022/05/08 05:23:56;;;;;;;15.00;5.60;;;;;;;16.17;35.83;99657.31;4993131;28;20046;-43
2022/05/08 05:26:23;;;;;;;13.55;5.47;;;;;;;16.42;35.41;99684.66;4994295;28;20030;-43
2022/05/08 05:28:51;;;;;;;10.10;5.60;;;;;;;16.57;34.88;99674.19;4993652;28;20058;-44
2022/05/08 05:31:17;;;;;;;10.82;6.50;;;;;;;16.72;35.00;99676.78;4995044;28;20049;-44
2022/05/08 05:33:46;;;;;;;11.07;5.60;;;;;;;16.97;34.61;99680.53;4994759;28;20046;-44
2022/05/08 05:36:12;;;;;;;16.13;5.97;;;;;;;16.96;34.42;99668.38;4993273;28;20586;-42
2022/05/08 05:38:38;;;;;;;9.15;5.38;;;;;;;17.14;34.37;99672.50;4994627;28;20398;-44
2022/05/08 05:41:04;;;;;;;10.68;5.47;;;;;;;17.22;33.92;99672.84;4993704;28;20053;-45
2022/05/08 05:43:30;;;;;;;13.93;5.57;;;;;;;17.28;33.95;99668.06;4994902;28;20049;-46
2022/05/08 05:48:40;;;;;;;8.93;5.30;;;;;;;17.75;33.43;99678.25;4991630;28;20468;-44
2022/05/08 05:51:06;;;;;;;10.98;5.53;;;;;;;17.50;33.84;99672.84;4991872;28;20093;-43
2022/05/08 05:53:32;;;;;;;12.50;5.25;;;;;;;17.34;33.92;99656.34;4978922;28;20039;-47
2022/05/08 05:55:58;;;;;;;11.85;5.57;;;;;;;17.54;34.10;99670.84;4985773;28;20501;-46
2022/05/08 05:58:24;;;;;;;9.88;5.20;;;;;;;17.50;34.02;99645.69;4993093;28;20046;-45
2022/05/08 06:00:50;;;;;;;14.02;6.03;;;;;;;17.40;34.54;99657.72;4993203;28;20517;-44
2022/05/08 06:03:16;;;;;;;12.32;6.13;;;;;;;17.49;34.72;99670.28;4984091;28;20077;-46
2022/05/08 06:05:43;;;;;;;9.05;4.15;;;;;;;17.25;35.23;99662.16;4992876;28;20038;-44
2022/05/08 06:08:09;;;;;;;10.93;5.43;;;;;;;17.13;35.68;99662.91;4978901;28;20046;-44
2022/05/08 06:10:35;;;;;;;10.40;5.32;;;;;;;17.07;36.00;99665.91;4978977;28;20046;-43
2022/05/08 06:13:02;;;;;;;11.18;5.50;;;;;;;16.90;36.31;99651.19;4993274;28;20168;-44
2022/05/08 06:15:28;;;;;;;9.27;5.15;;;;;;;16.82;36.60;99656.91;4991959;28;20421;-46
2022/05/08 06:17:55;;;;;;;13.02;5.13;;;;;;;16.89;36.75;99654.75;4993100;28;20042;-44
2022/05/08 06:20:21;;;;;;;13.68;5.53;;;;;;;16.90;36.58;99645.94;4993301;28;20062;-43
2022/05/08 06:22:47;;;;;;;9.82;4.97;;;;;;;16.89;36.67;99631.97;4991769;28;20045;-45
2022/05/08 06:25:13;;;;;;;12.20;5.30;;;;;;;16.87;36.92;99627.75;4989748;28;20043;-61
2022/05/08 06:27:38;;;;;;;10.15;4.75;;;;;;;16.99;37.17;99645.38;4993025;28;20038;-48
2022/05/08 06:30:07;;;;;;;10.13;5.43;;;;;;;16.99;37.04;99649.78;4993283;28;20529;-45
2022/05/08 06:32:34;;;;;;;11.00;5.93;;;;;;;17.00;37.39;99649.69;4979913;28;20139;-43
2022/05/08 06:35:00;;;;;;;15.23;5.57;;;;;;;17.05;37.69;99645.00;4969147;28;20285;-43
2022/05/08 06:37:26;;;;;;;13.02;5.90;;;;;;;17.23;37.37;99643.00;4989228;28;20043;-47
2022/05/08 06:39:51;;;;;;;9.48;5.05;;;;;;;17.37;37.41;99648.28;4987851;28;20038;-45
2022/05/08 06:42:18;;;;;;;9.13;5.00;;;;;;;17.49;36.92;99646.63;4979817;28;20505;-45
2022/05/08 06:44:50;;;;;;;8.18;5.55;;;;;;;17.59;36.71;99661.75;4980876;28;20056;-46
2022/05/08 06:47:16;;;;;;;8.70;4.90;;;;;;;17.57;36.43;99650.47;4987178;28;20038;-47
2022/05/08 06:49:42;;;;;;;7.50;5.70;;;;;;;17.81;36.04;99650.72;4986340;28;20042;-46
2022/05/08 06:52:08;;;;;;;9.85;5.00;;;;;;;18.13;35.20;99649.47;4976634;28;20112;-43
2022/05/08 06:54:33;;;;;;;8.10;5.45;;;;;;;17.98;35.21;99662.78;4983215;28;20026;-47
2022/05/08 06:56:59;;;;;;;13.35;5.35;;;;;;;17.75;35.46;99637.97;4989285;28;20054;-45
2022/05/08 07:02:11;;;;;;;8.35;3.67;;;;;;;17.58;35.68;99660.06;4990066;28;20165;-46
2022/05/08 07:04:40;;;;;;;8.73;5.05;;;;;;;17.45;35.98;99653.88;4991135;28;20066;-45
2022/05/08 07:07:06;;;;;;;9.50;5.22;;;;;;;17.38;36.12;99657.81;4971008;28;20138;-45
2022/05/08 07:09:34;;;;;;;10.45;4.97;;;;;;;17.33;36.24;99649.38;4989776;28;20061;-45
2022/05/08 07:12:00;;;;;;;11.23;5.35;;;;;;;17.48;36.20;99651.03;4992418;28;20034;-46
2022/05/08 07:14:26;;;;;;;9.65;5.35;;;;;;;17.47;36.00;99646.75;4983284;28;20042;-45
2022/05/08 07:16:52;;;;;;;10.35;5.60;;;;;;;17.34;36.46;99651.91;4990723;28;20425;-47
2022/05/08 07:19:20;;;;;;;11.27;4.72;;;;;;;17.25;36.21;99649.88;4987954;28;20049;-46
2022/05/08 07:21:46;;;;;;;10.85;5.40;;;;;;;17.15;36.81;99640.03;4992429;28;20770;-51
2022/05/08 07:24:12;;;;;;;8.18;5.07;;;;;;;17.17;36.64;99636.34;4991997;28;20043;-46
2022/05/08 07:26:38;;;;;;;12.80;5.03;;;;;;;17.33;36.60;99637.09;4990953;28;20050;-48
2022/05/08 07:29:05;;;;;;;8.57;5.40;;;;;;;17.63;36.05;99636.13;5004870;28;20513;-46
2022/05/08 07:31:31;;;;;;;12.70;5.35;;;;;;;17.76;35.51;99637.03;4995043;28;20073;-45
2022/05/08 07:36:44;;;;;;;12.68;5.63;;;;;;;17.80;35.61;99625.34;5002751;28;20050;-46
2022/05/08 07:39:10;;;;;;;9.38;4.70;;;;;;;17.89;35.49;99632.66;5012098;28;20100;-48
2022/05/08 07:41:36;;;;;;;8.82;5.30;;;;;;;18.10;35.22;99620.75;5001913;28;20425;-48
2022/05/08 07:44:02;;;;;;;10.90;5.90;;;;;;;18.38;35.06;99621.50;4991687;28;20069;-46
2022/05/08 07:46:28;;;;;;;10.07;4.63;;;;;;;18.66;34.45;99626.63;4991305;28;20038;-46
2022/05/08 07:48:54;;;;;;;10.95;4.53;;;;;;;18.76;34.15;99613.66;4959091;28;20510;-47
2022/05/08 07:51:20;;;;;;;9.27;4.93;;;;;;;18.95;33.93;99617.56;4994954;28;20067;-47
2022/05/08 07:53:46;;;;;;;11.52;4.75;;;;;;;19.20;33.45;99611.41;4993003;28;20501;-48
2022/05/08 07:56:12;;;;;;;7.28;3.97;;;;;;;19.49;32.63;99613.78;4991194;28;20042;-46
2022/05/08 07:58:37;;;;;;;11.68;5.25;;;;;;;19.22;32.89;99592.84;4991559;28;20093;-46
2022/05/08 08:01:03;;;;;;;9.18;5.10;;;;;;;18.94;32.48;99604.50;4991217;28;20134;-48
2022/05/08 08:03:31;;;;;;;8.88;4.53;;;;;;;18.63;33.31;99611.06;4979987;28;20142;-49
2022/05/08 08:05:57;;;;;;;13.95;5.00;;;;;;;18.60;33.50;99612.09;4974746;28;20051;-48
2022/05/08 08:08:25;;;;;;;12.60;5.15;;;;;;;18.76;33.42;99614.53;4975212;28;20557;-46
2022/05/08 08:10:53;;;;;;;9.93;4.53;;;;;;;18.63;33.27;99599.69;4976680;28;20047;-49
2022/05/08 08:13:22;;;;;;;13.20;5.65;;;;;;;18.77;33.21;99607.47;4974875;28;20410;-47
2022/05/08 08:15:52;;;;;;;7.82;4.63;;;;;;;18.52;33.48;99579.31;4970656;28;20050;-49
2022/05/08 08:18:18;;;;;;;8.55;3.38;;;;;;;18.58;33.32;99600.81;4971909;28;20074;-48
2022/05/08 08:20:45;;;;;;;11.10;4.88;;;;;;;18.38;34.04;99600.44;4971161;28;20038;-48
2022/05/08 08:23:11;;;;;;;9.10;4.70;;;;;;;18.27;34.17;99595.06;4972433;28;20145;-48
2022/05/08 08:25:37;;;;;;;12.18;5.55;;;;;;;18.20;33.99;99581.50;4978584;28;20073;-48
2022/05/08 08:28:03;;;;;;;6.97;4.35;;;;;;;18.31;33.98;99572.88;4980353;28;20042;-51
2022/05/08 08:30:29;;;;;;;10.35;4.78;;;;;;;18.47;33.56;99578.78;4971251;28;20536;-50
2022/05/08 08:32:55;;;;;;;9.27;5.10;;;;;;;18.63;33.25;99582.91;4980130;28;20568;-48
2022/05/08 08:35:21;;;;;;;7.53;4.30;;;;;;;18.82;32.76;99586.91;4960344;28;20038;-49
2022/05/08 08:37:46;;;;;;;7.55;4.30;;;;;;;18.81;32.34;99572.06;4973420;28;20057;-46
2022/05/08 08:40:13;;;;;;;7.30;4.38;;;;;;;18.90;32.04;99589.84;4973281;28;20042;-51
2022/05/08 08:42:43;;;;;;;14.30;4.75;;;;;;;18.98;31.46;99571.72;4977981;28;20057;-48
2022/05/08 08:47:58;;;;;;;9.40;5.28;;;;;;;19.58;30.35;99571.75;4997183;28;20045;-47
2022/05/08 08:50:28;;;;;;;10.10;5.40;;;;;;;19.64;30.26;99570.47;4974032;28;20076;-48
2022/05/08 08:52:54;;;;;;;9.05;5.20;;;;;;;19.72;30.32;99561.06;4984991;28;20051;-45
2022/05/08 08:55:22;;;;;;;14.70;5.20;;;;;;;20.43;29.48;99570.66;5000229;28;20042;-52
2022/05/08 08:57:48;;;;;;;5.32;3.75;;;;;;;20.41;29.23;99554.06;4985575;28;20093;-50
2022/05/08 09:00:18;;;;;;;8.23;4.13;;;;;;;20.17;29.21;99556.75;4973916;28;20084;-46
2022/05/08 09:02:44;;;;;;;8.98;4.80;;;;;;;19.97;29.71;99548.66;4981136;28;20173;-50
2022/05/08 09:05:10;;;;;;;12.48;5.00;;;;;;;19.91;29.65;99560.53;4991299;28;20064;-48
2022/05/08 09:07:41;;;;;;;21.02;5.32;;;;;;;19.83;29.84;99545.28;4991327;28;20093;-49
2022/05/08 09:10:10;;;;;;;12.52;5.22;;;;;;;20.07;29.93;99555.78;4986056;28;20050;-51
2022/05/08 09:12:42;;;;;;;7.78;4.15;;;;;;;20.20;29.33;99577.63;4989445;28;20189;-48
2022/05/08 09:15:22;;;;;;;8.35;5.22;;;;;;;19.92;29.72;99554.28;4989065;28;20125;-47
2022/05/08 09:17:57;;;;;;;10.15;4.93;;;;;;;19.89;29.96;99536.88;4989536;28;20046;-47
2022/05/08 09:20:27;;;;;;;8.80;5.47;;;;;;;19.91;29.93;99544.69;4988746;28;20069;-49
2022/05/08 09:23:02;;;;;;;9.02;5.05;;;;;;;19.99;29.73;99531.78;4989631;28;20061;-49
2022/05/08 09:25:47;;;;;;;12.57;5.22;;;;;;;20.20;29.57;99529.31;4987474;28;20066;-47
2022/05/08 09:28:28;;;;;;;8.25;4.32;;;;;;;20.31;29.38;99553.09;4987645;28;20057;-50
2022/05/08 09:30:59;;;;;;;11.00;5.30;;;;;;;20.18;29.61;99550.53;4989372;28;20054;-48
2022/05/08 09:33:31;;;;;;;12.70;5.72;;;;;;;21.01;28.63;99529.09;4986208;28;20187;-46
2022/05/08 09:36:02;;;;;;;8.88;5.25;;;;;;;21.49;28.05;99527.00;4984804;28;20031;-47
2022/05/08 09:38:50;;;;;;;9.98;6.25;;;;;;;21.88;27.74;99530.78;4992778;28;20502;-47
2022/05/08 09:41:21;;;;;;;9.13;6.15;;;;;;;22.05;27.41;99545.28;4992708;28;20100;-46
2022/05/08 09:43:49;;;;;;;11.63;5.80;;;;;;;22.34;27.15;99526.00;4994202;28;20521;-48
2022/05/08 09:46:15;;;;;;;9.85;5.40;;;;;;;22.74;26.54;99530.53;4993603;28;20038;-47
2022/05/08 09:48:41;;;;;;;12.77;5.80;;;;;;;23.85;25.20;99532.03;4993835;28;20046;-49
2022/05/08 09:51:11;;;;;;;10.40;6.13;;;;;;;24.83;24.15;99526.34;4991615;28;20118;-45
2022/05/08 09:53:40;;;;;;;9.45;6.10;;;;;;;25.69;22.88;99531.19;4991477;28;20066;-47
2022/05/08 09:56:06;;;;;;;;;;;;;;;26.91;21.60;99532.91;4990172;28;20038;-46
2022/05/08 09:58:32;;;;;;;9.23;5.85;;;;;;;27.67;20.92;99511.44;4993364;28;19952;-47
2022/05/08 10:01:00;;;;;;;9.80;6.55;;;;;;;28.32;20.51;99514.09;4991628;28;20034;-46
2022/05/08 10:03:27;;;;;;;12.10;5.80;;;;;;;28.25;20.36;99514.97;4979189;28;20065;-45
2022/05/08 10:05:53;;;;;;;12.93;6.47;;;;;;;28.85;19.96;99501.91;4973253;28;20043;-48
2022/05/08 10:08:22;;;;;;;8.40;6.27;;;;;;;28.66;20.25;99487.09;4973774;28;20152;-47
2022/05/08 10:13:59;;;;;;;8.43;5.30;;;;;;;28.66;19.97;99492.44;4992976;28;20073;-46
2022/05/08 10:16:59;;;;;;;10.00;5.72;;;;;;;28.28;20.23;99482.50;4992507;28;20092;-44
2022/05/08 10:19:25;;;;;;;9.75;5.63;;;;;;;28.69;19.93;99476.03;4993967;28;20081;-49
2022/05/08 10:22:02;;;;;;;8.55;5.70;;;;;;;28.96;19.85;99472.94;4993726;28;20049;-46
2022/05/08 10:24:33;;;;;;;8.93;5.75;;;;;;;28.49;20.26;99464.91;4993836;28;20054;-46
2022/05/08 10:27:11;;;;;;;7.82;5.00;;;;;;;27.96;20.81;99451.28;4993888;28;20526;-45
2022/05/08 10:29:38;;;;;;;11.88;5.95;;;;;;;28.11;20.63;99461.13;4993910;28;20057;-50
2022/05/08 10:32:06;;;;;;;8.65;4.55;;;;;;;27.93;20.84;99455.16;4993798;28;20057;-46
2022/05/08 10:34:34;;;;;;;8.20;5.05;;;;;;;27.25;21.37;99436.75;4992767;28;20422;-45
2022/05/08 10:37:12;;;;;;;11.55;4.35;;;;;;;26.39;22.06;99457.44;4994052;28;20046;-47
2022/05/08 10:39:46;;;;;;;8.77;5.38;;;;;;;25.53;23.06;99451.13;4992690;28;20042;-45
2022/05/08 10:42:24;;;;;;;11.07;5.05;;;;;;;24.69;24.13;99433.78;4992149;28;20121;-47
2022/05/08 10:44:50;;;;;;;8.82;4.15;;;;;;;24.01;25.09;99443.81;4991988;28;20426;-49
2022/05/08 10:47:36;;;;;;;8.23;4.95;;;;;;;23.32;26.00;99424.56;4993545;28;20065;-47
2022/05/08 10:50:05;;;;;;;12.70;5.50;;;;;;;23.49;25.85;99422.09;4993056;28;20046;-49
2022/05/08 10:52:38;;;;;;;10.48;5.85;;;;;;;24.02;25.40;99416.28;4993682;28;20470;-48
2022/05/08 10:55:08;;;;;;;8.70;4.68;;;;;;;24.25;25.21;99425.56;4981427;28;20045;-46
2022/05/08 10:57:37;;;;;;;6.00;4.07;;;;;;;24.29;25.19;99426.09;4981364;28;20492;-47
2022/05/08 11:00:20;;;;;;;10.35;5.57;;;;;;;24.21;25.05;99426.00;4992445;28;20147;-45
2022/05/08 11:02:54;;;;;;;9.82;5.03;;;;;;;23.75;25.71;99419.69;4983961;28;20445;-47
2022/05/08 11:05:32;;;;;;;8.88;4.30;;;;;;;23.31;26.30;99413.13;4983089;28;20049;-49
2022/05/08 11:07:58;;;;;;;11.13;4.35;;;;;;;23.71;26.00;99428.09;4992082;28;20034;-46
2022/05/08 11:10:25;;;;;;;8.93;3.92;;;;;;;24.78;24.66;99423.06;4992371;28;20061;-47
2022/05/08 11:13:10;;;;;;;9.20;4.50;;;;;;;25.92;23.61;99416.16;4990907;28;20046;-47
2022/05/08 11:15:43;;;;;;;11.25;4.90;;;;;;;26.80;22.51;99421.09;4986780;28;20464;-44
2022/05/08 11:18:12;;;;;;;7.00;4.10;;;;;;;27.15;22.52;99422.72;4991023;28;20038;-46
2022/05/08 11:20:48;;;;;;;6.40;4.05;;;;;;;26.11;23.06;99399.97;4992520;28;20473;-45
2022/05/08 11:23:17;;;;;;;6.88;4.53;;;;;;;25.46;23.91;99399.50;4992262;28;20125;-47
2022/05/08 11:25:54;;;;;;;12.70;5.28;;;;;;;25.03;24.20;99397.59;4992092;28;20490;-49
2022/05/08 11:28:25;;;;;;;8.05;4.78;;;;;;;25.94;23.48;99407.03;4992711;28;20042;-47
2022/05/08 11:30:53;;;;;;;11.73;4.35;;;;;;;25.83;23.89;99404.63;4991422;28;20048;-45
2022/05/08 11:36:07;;;;;;;10.73;3.92;;;;;;;24.67;25.55;99399.34;4991978;28;20133;-45
2022/05/08 11:38:45;;;;;;;11.88;4.28;;;;;;;24.80;25.56;99402.50;4992289;28;20088;-49
2022/05/08 11:41:12;;;;;;;;;;;;;;;24.53;25.69;99421.13;4992437;28;20430;-46
2022/05/08 11:43:39;;;;;;;7.80;3.75;;;;;;;23.31;27.27;99407.81;4992178;28;19917;-45
2022/05/08 11:46:05;;;;;;;8.20;3.78;;;;;;;22.64;28.16;99399.75;4992564;28;20092;-47
2022/05/08 11:48:40;;;;;;;7.43;4.15;;;;;;;22.21;28.81;99378.84;4991135;28;20502;-46
2022/05/08 11:51:07;;;;;;;6.43;3.95;;;;;;;21.98;29.29;99390.59;4987908;28;20046;-47
2022/05/08 11:53:59;;;;;;;6.10;3.70;;;;;;;21.60;29.97;99386.72;4981911;28;20060;-49
2022/05/08 11:56:33;;;;;;;10.82;4.07;;;;;;;21.56;30.06;99395.91;4982969;28;20081;-47
2022/05/08 11:59:03;;;;;;;6.85;4.05;;;;;;;21.18;30.50;99399.06;4992277;28;20502;-44